Time;durP1;ratioP1;P1;durP2;ratioP2;P2;SDS_P1;SDS_P2;PMS_P1;PMS_P2;Temp;Humidity;BMP_temperature;BMP_pressure;BME280_temperature;BME280_humidity;BME280_pressure;Samples;Min_cycle;Max_cycle;Signal;HPM_P1;HPM_P2
2023/07/24 00:00:53;;;;;;;18.17;10.68;;;;;;;24.17;52.87;98343.44;5109342;28;20277;-56
2023/07/24 00:03:18;;;;;;;17.30;11.38;;;;;;;24.13;52.71;98353.75;5109214;28;20206;-57
2023/07/24 00:05:43;;;;;;;22.33;12.65;;;;;;;24.17;52.44;98340.78;5108934;28;20323;-57
2023/07/24 00:08:09;;;;;;;17.92;11.88;;;;;;;24.18;52.11;98326.53;5109199;28;20211;-57
2023/07/24 00:10:34;;;;;;;19.52;11.63;;;;;;;24.22;51.89;98348.13;5109146;28;20624;-57
2023/07/24 00:13:01;;;;;;;18.73;11.73;;;;;;;24.23;52.43;98363.81;5109205;28;20171;-57
2023/07/24 00:15:26;;;;;;;17.70;11.23;;;;;;;23.98;52.92;98330.84;5109160;28;20187;-57
2023/07/24 00:17:51;;;;;;;17.67;11.68;;;;;;;24.13;53.18;98343.19;5111569;28;20549;-56
2023/07/24 00:20:17;;;;;;;16.20;10.27;;;;;;;24.02;53.87;98315.44;5111509;28;20525;-57
2023/07/24 00:22:42;;;;;;;19.10;10.52;;;;;;;24.15;54.11;98353.34;5111502;28;20211;-57
2023/07/24 00:25:09;;;;;;;15.90;9.77;;;;;;;24.08;54.01;98341.91;5108669;28;20216;-56
2023/07/24 00:27:34;;;;;;;16.92;11.50;;;;;;;24.15;53.03;98336.69;5108816;28;20665;-57
2023/07/24 00:29:59;;;;;;;18.58;11.45;;;;;;;24.00;53.31;98337.78;5108781;28;20194;-56
2023/07/24 00:32:25;;;;;;;16.95;11.48;;;;;;;23.84;53.18;98318.50;5108888;28;20178;-57
2023/07/24 00:34:50;;;;;;;16.25;10.80;;;;;;;23.80;53.94;98337.59;5108805;28;20190;-56
2023/07/24 00:37:15;;;;;;;15.48;10.60;;;;;;;23.79;54.72;98342.03;5108759;28;20235;-56
2023/07/24 00:39:41;;;;;;;15.63;10.85;;;;;;;23.81;55.56;98355.06;5108659;28;20220;-57
2023/07/24 00:42:06;;;;;;;16.80;10.60;;;;;;;23.83;55.57;98341.69;5108813;28;20305;-56
2023/07/24 00:44:32;;;;;;;13.13;8.85;;;;;;;23.73;57.24;98320.03;5108770;28;20222;-57
2023/07/24 00:46:57;;;;;;;15.68;9.65;;;;;;;24.00;56.61;98343.09;5111605;28;20221;-57
2023/07/24 00:49:23;;;;;;;14.98;9.88;;;;;;;23.91;56.11;98321.25;5113020;28;20175;-57
2023/07/24 00:51:49;;;;;;;16.35;9.77;;;;;;;23.96;55.57;98334.69;5112894;28;20202;-57
2023/07/24 00:54:16;;;;;;;16.40;10.75;;;;;;;23.80;55.17;98316.44;5112950;28;20183;-57
2023/07/24 00:56:44;;;;;;;15.95;9.90;;;;;;;23.72;55.15;98307.81;5114412;28;20278;-57
2023/07/24 00:59:10;;;;;;;16.95;11.52;;;;;;;23.73;54.26;98321.66;5115397;28;20175;-57
2023/07/24 01:01:37;;;;;;;19.20;11.82;;;;;;;23.83;54.62;98334.53;5115242;27;20280;-57
2023/07/24 01:04:05;;;;;;;16.98;11.43;;;;;;;23.73;54.77;98321.66;5115135;28;20174;-57
2023/07/24 01:06:30;;;;;;;15.15;9.80;;;;;;;23.83;55.46;98339.03;5115132;28;20194;-57
2023/07/24 01:08:56;;;;;;;14.60;10.52;;;;;;;23.84;54.88;98334.38;5115084;28;20549;-57
2023/07/24 01:11:29;;;;;;;14.68;10.13;;;;;;;23.67;55.41;98302.28;5115050;28;20171;-57
2023/07/24 01:14:06;;;;;;;14.90;10.15;;;;;;;23.80;55.51;98340.22;5115094;28;20210;-57
2023/07/24 01:16:37;;;;;;;17.25;10.07;;;;;;;23.65;55.09;98317.53;5114906;28;20178;-57
2023/07/24 01:19:12;;;;;;;16.52;11.15;;;;;;;23.77;55.41;98338.78;5114915;28;20178;-57
2023/07/24 01:21:57;;;;;;;14.77;10.63;;;;;;;23.80;55.03;98348.97;5114898;28;20174;-57
2023/07/24 01:24:35;;;;;;;17.95;11.05;;;;;;;23.47;55.50;98310.03;5114741;28;20195;-57
2023/07/24 01:27:00;;;;;;;12.65;9.43;;;;;;;23.56;56.73;98330.03;5114874;28;20178;-56
2023/07/24 01:29:26;;;;;;;12.80;9.40;;;;;;;23.41;56.99;98321.34;5114788;28;20172;-56
2023/07/24 01:31:51;;;;;;;16.23;10.48;;;;;;;23.42;56.19;98330.09;5114762;28;20171;-57
2023/07/24 01:34:17;;;;;;;15.93;10.88;;;;;;;23.29;55.50;98304.34;5114652;28;20589;-57
2023/07/24 01:36:42;;;;;;;18.30;11.13;;;;;;;23.49;55.29;98323.84;5114590;28;20182;-57
2023/07/24 01:39:09;;;;;;;15.38;10.50;;;;;;;23.58;55.25;98324.53;5114551;28;20652;-57
2023/07/24 01:41:34;;;;;;;16.65;10.30;;;;;;;23.79;54.79;98349.16;5114360;28;20650;-57
2023/07/24 01:44:00;;;;;;;15.93;10.02;;;;;;;23.67;55.20;98348.03;5114408;28;20170;-57
2023/07/24 01:46:25;;;;;;;17.05;11.25;;;;;;;23.44;55.21;98320.16;5114436;28;20175;-57
2023/07/24 01:48:52;;;;;;;16.95;10.77;;;;;;;23.66;54.99;98351.66;5114410;28;20178;-56
2023/07/24 01:51:17;;;;;;;15.63;10.15;;;;;;;23.54;55.44;98339.97;5114339;28;20171;-57
2023/07/24 01:53:43;;;;;;;14.32;10.05;;;;;;;23.42;56.02;98317.69;5111489;28;20775;-56
2023/07/24 01:56:08;;;;;;;16.33;9.90;;;;;;;23.55;55.45;98348.72;5111709;28;20191;-56
2023/07/24 01:58:33;;;;;;;16.58;10.18;;;;;;;23.42;56.59;98338.03;5111727;28;20522;-56
2023/07/24 02:00:59;;;;;;;15.85;10.13;;;;;;;23.38;55.65;98326.19;5111606;28;20179;-57
2023/07/24 02:03:25;;;;;;;17.13;10.60;;;;;;;23.35;55.23;98335.28;5111799;28;20187;-56
2023/07/24 02:05:51;;;;;;;16.70;11.02;;;;;;;23.37;55.23;98345.69;5111332;28;20246;-57
2023/07/24 02:08:16;;;;;;;15.52;9.45;;;;;;;23.19;57.49;98338.16;5111320;28;20217;-56
2023/07/24 02:10:42;;;;;;;13.77;10.07;;;;;;;23.23;58.88;98359.72;5111500;28;20215;-56
2023/07/24 02:13:07;;;;;;;15.10;10.38;;;;;;;23.10;56.85;98328.69;5111425;28;20278;-56
2023/07/24 02:15:33;;;;;;;15.55;10.82;;;;;;;23.09;57.05;98320.94;5111358;28;20557;-56
2023/07/24 02:17:58;;;;;;;17.80;10.15;;;;;;;23.06;57.78;98313.38;5111327;28;20239;-56
2023/07/24 02:20:24;;;;;;;17.77;10.55;;;;;;;22.99;56.88;98309.84;5110972;28;20183;-56
2023/07/24 02:22:49;;;;;;;14.85;9.80;;;;;;;23.00;57.57;98330.78;5111118;28;20187;-56
2023/07/24 02:25:14;;;;;;;16.02;9.85;;;;;;;22.89;58.65;98309.34;5110943;28;20210;-56
2023/07/24 02:27:40;;;;;;;12.70;9.07;;;;;;;22.95;59.64;98316.53;5111374;28;20181;-56
2023/07/24 02:30:06;;;;;;;13.15;9.65;;;;;;;23.02;59.25;98333.25;5111022;28;20702;-56
2023/07/24 02:32:32;;;;;;;12.55;9.40;;;;;;;22.86;60.05;98326.38;5110848;28;20197;-56
2023/07/24 02:34:57;;;;;;;12.10;9.00;;;;;;;22.75;61.22;98323.34;5110823;28;20271;-56
2023/07/24 02:37:22;;;;;;;14.75;9.88;;;;;;;22.77;60.23;98321.34;5110831;28;20752;-56
2023/07/24 02:39:48;;;;;;;16.15;10.50;;;;;;;22.70;59.74;98315.16;5110815;28;20248;-56
2023/07/24 02:42:13;;;;;;;17.30;10.27;;;;;;;22.70;58.91;98310.72;5110794;28;20168;-56
2023/07/24 02:44:39;;;;;;;14.98;10.10;;;;;;;22.84;58.16;98330.19;5110693;28;20235;-56
2023/07/24 02:47:04;;;;;;;17.25;10.35;;;;;;;22.75;57.74;98312.81;5110677;28;20696;-56
2023/07/24 02:49:30;;;;;;;14.48;9.93;;;;;;;22.78;59.34;98333.56;5110672;28;20664;-57
2023/07/24 02:51:55;;;;;;;14.90;10.27;;;;;;;22.75;59.09;98337.38;5112142;28;20186;-56
2023/07/24 02:54:20;;;;;;;16.17;10.13;;;;;;;22.75;59.20;98333.91;5113127;28;20412;-57
2023/07/24 02:56:46;;;;;;;15.38;10.23;;;;;;;22.89;59.60;98347.09;5113319;28;20178;-57
2023/07/24 02:59:11;;;;;;;13.52;9.00;;;;;;;22.68;59.76;98320.63;5113031;28;20739;-56
2023/07/24 03:01:37;;;;;;;13.98;9.15;;;;;;;22.89;59.97;98354.22;5112805;28;20589;-56
2023/07/24 03:04:02;;;;;;;16.25;9.65;;;;;;;22.91;59.50;98357.47;5112394;28;20237;-57
2023/07/24 03:06:28;;;;;;;14.75;9.60;;;;;;;22.72;60.09;98344.84;5112712;28;20231;-56
2023/07/24 03:08:53;;;;;;;15.77;10.18;;;;;;;22.59;59.20;98315.63;5112085;28;20510;-56
2023/07/24 03:11:19;;;;;;;13.38;9.82;;;;;;;22.71;59.27;98332.63;5112731;28;20629;-56
2023/07/24 03:13:44;;;;;;;15.30;9.32;;;;;;;22.62;60.12;98321.34;5112606;28;20171;-56
2023/07/24 03:16:09;;;;;;;15.20;8.88;;;;;;;22.76;61.46;98352.22;5112603;28;20181;-56
2023/07/24 03:18:35;;;;;;;14.50;9.23;;;;;;;22.80;62.40;98357.94;5112590;28;20167;-56
2023/07/24 03:21:00;;;;;;;12.32;8.85;;;;;;;22.70;62.01;98346.81;5112573;28;20206;-56
2023/07/24 03:23:26;;;;;;;12.82;9.00;;;;;;;22.46;62.10;98324.19;5112480;28;20653;-56
2023/07/24 03:25:51;;;;;;;12.55;9.55;;;;;;;22.52;62.30;98333.19;5112320;28;20294;-57
2023/07/24 03:28:17;;;;;;;13.80;8.68;;;;;;;22.54;62.09;98332.00;5112446;28;20171;-57
2023/07/24 03:30:42;;;;;;;15.85;9.55;;;;;;;22.60;60.83;98333.13;5112387;27;20175;-57
2023/07/24 03:33:08;;;;;;;14.98;10.32;;;;;;;22.58;60.83;98321.91;5112336;28;20718;-57
2023/07/24 03:35:33;;;;;;;11.88;9.00;;;;;;;22.74;60.21;98324.38;5112171;28;20285;-57
2023/07/24 03:37:59;;;;;;;16.45;9.73;;;;;;;22.85;59.66;98342.38;5112213;28;20243;-56
2023/07/24 03:40:25;;;;;;;13.57;9.68;;;;;;;22.59;61.88;98340.19;5112129;28;20549;-56
2023/07/24 03:42:50;;;;;;;13.38;9.25;;;;;;;22.44;63.62;98317.47;5112175;28;20171;-56
2023/07/24 03:45:15;;;;;;;13.13;9.63;;;;;;;22.50;63.44;98314.09;5111952;28;20297;-56
2023/07/24 03:47:41;;;;;;;12.75;9.52;;;;;;;22.59;61.53;98331.47;5111934;28;20208;-56
2023/07/24 03:50:07;;;;;;;15.52;9.80;;;;;;;22.80;60.46;98350.03;5112064;28;20213;-57
2023/07/24 03:52:32;;;;;;;13.55;9.60;;;;;;;22.81;60.93;98349.00;5112025;28;20171;-57
2023/07/24 03:54:57;;;;;;;14.55;9.70;;;;;;;22.86;60.32;98354.56;5111777;28;20171;-57
2023/07/24 03:57:23;;;;;;;13.00;8.60;;;;;;;22.74;61.60;98327.00;5111949;28;20206;-57
2023/07/24 03:59:48;;;;;;;12.40;8.45;;;;;;;22.82;62.24;98342.72;5111601;28;20182;-57
2023/07/24 04:02:14;;;;;;;14.38;9.50;;;;;;;23.15;61.69;98362.44;5111851;28;20196;-57
2023/07/24 04:04:39;;;;;;;13.23;8.88;;;;;;;22.97;61.64;98338.25;5111738;28;20571;-57
2023/07/24 04:07:05;;;;;;;12.02;8.68;;;;;;;23.13;59.84;98343.34;5111371;28;20187;-57
2023/07/24 04:09:30;;;;;;;14.20;9.23;;;;;;;23.37;59.66;98369.44;5111763;28;20178;-57
2023/07/24 04:11:56;;;;;;;11.35;8.75;;;;;;;23.23;59.05;98328.03;5111593;28;20536;-56
2023/07/24 04:14:21;;;;;;;12.68;8.93;;;;;;;23.33;58.78;98333.84;5111396;28;20657;-56
2023/07/24 04:16:47;;;;;;;14.85;10.10;;;;;;;23.45;58.61;98342.91;5111421;28;20175;-56
2023/07/24 04:19:12;;;;;;;13.10;8.73;;;;;;;23.35;59.61;98331.81;5111734;28;20562;-56
2023/07/24 04:21:38;;;;;;;11.63;8.23;;;;;;;23.54;59.08;98357.66;5111510;28;20637;-56
2023/07/24 04:24:03;;;;;;;11.90;8.98;;;;;;;23.40;58.03;98338.19;5111441;28;20176;-56
2023/07/24 04:26:29;;;;;;;15.00;9.82;;;;;;;23.52;57.72;98354.34;5111799;28;20553;-56
2023/07/24 04:28:54;;;;;;;14.77;9.07;;;;;;;23.69;56.57;98357.38;5111422;28;20250;-56
2023/07/24 04:31:19;;;;;;;13.73;9.80;;;;;;;23.55;56.35;98328.38;5111329;28;20291;-56
2023/07/24 04:33:45;;;;;;;15.00;9.55;;;;;;;23.86;56.38;98371.19;5111383;28;20194;-56
2023/07/24 04:36:10;;;;;;;13.38;9.90;;;;;;;23.95;56.53;98377.19;5111078;28;20171;-56
2023/07/24 04:38:35;;;;;;;12.05;8.73;;;;;;;23.78;56.59;98369.47;5111367;28;20383;-56
2023/07/24 04:41:04;;;;;;;14.80;9.40;;;;;;;23.82;57.07;98362.00;5111067;28;20175;-56
2023/07/24 04:43:29;;;;;;;14.57;9.32;;;;;;;23.76;56.73;98370.69;5111311;28;20178;-56
2023/07/24 04:45:55;;;;;;;15.23;10.10;;;;;;;23.83;56.45;98362.81;5111181;28;20191;-56
2023/07/24 04:48:20;;;;;;;13.10;9.32;;;;;;;23.89;56.72;98354.97;5111244;28;20255;-56
2023/07/24 04:50:46;;;;;;;14.70;9.68;;;;;;;24.09;56.99;98370.00;5111217;28;20655;-56
2023/07/24 04:53:11;;;;;;;12.35;8.45;;;;;;;24.17;56.57;98372.50;5111173;28;20171;-56
2023/07/24 04:55:37;;;;;;;13.68;8.15;;;;;;;24.30;57.02;98362.03;5111198;28;20175;-56
2023/07/24 04:58:02;;;;;;;14.13;8.82;;;;;;;24.58;56.04;98397.28;5111082;28;20234;-56
2023/07/24 05:00:28;;;;;;;14.32;10.02;;;;;;;24.76;54.40;98400.25;5111033;28;20167;-56
2023/07/24 05:02:53;;;;;;;16.35;9.43;;;;;;;24.87;55.58;98394.41;5111101;28;20190;-56
2023/07/24 05:05:18;;;;;;;27.75;10.88;;;;;;;25.07;56.98;98392.66;5110964;28;20202;-56
2023/07/24 05:07:44;;;;;;;26.30;10.63;;;;;;;25.10;58.99;98365.81;5111113;28;20171;-57
2023/07/24 05:10:09;;;;;;;19.08;9.88;;;;;;;25.41;59.33;98397.94;5111024;28;20494;-57
2023/07/24 05:12:35;;;;;;;17.85;10.50;;;;;;;25.40;59.57;98396.31;5110976;28;20179;-57
2023/07/24 05:15:00;;;;;;;16.85;10.38;;;;;;;25.16;57.37;98395.97;5111022;28;20186;-57
2023/07/24 05:17:25;;;;;;;16.42;9.90;;;;;;;25.23;54.14;98402.94;5111002;28;20262;-57
2023/07/24 05:19:51;;;;;;;16.23;9.55;;;;;;;25.16;53.58;98380.91;5110930;28;20258;-57
2023/07/24 05:22:16;;;;;;;14.80;10.23;;;;;;;25.37;54.18;98415.25;5110936;28;20717;-57
2023/07/24 05:24:41;;;;;;;15.23;9.55;;;;;;;25.52;54.22;98410.63;5111027;28;20293;-57
2023/07/24 05:27:07;;;;;;;12.60;8.93;;;;;;;25.56;54.47;98408.38;5110931;28;20171;-57
2023/07/24 05:29:32;;;;;;;15.82;9.57;;;;;;;25.64;52.83;98401.06;5110878;28;20254;-57
2023/07/24 05:31:58;;;;;;;13.90;8.93;;;;;;;25.61;52.70;98371.50;5111947;28;20183;-57
2023/07/24 05:34:24;;;;;;;14.65;9.48;;;;;;;25.80;52.23;98400.72;5114680;28;20186;-57
2023/07/24 05:36:49;;;;;;;15.50;10.13;;;;;;;25.74;52.22;98375.00;5114697;28;20179;-57
2023/07/24 05:39:15;;;;;;;16.60;9.98;;;;;;;26.13;53.97;98406.09;5114735;28;20586;-57
2023/07/24 05:41:40;;;;;;;19.25;10.65;;;;;;;26.09;53.02;98407.50;5115117;28;20199;-57
2023/07/24 05:44:06;;;;;;;12.40;9.18;;;;;;;26.07;55.69;98413.00;5114991;28;20175;-57
2023/07/24 05:46:31;;;;;;;16.15;9.43;;;;;;;26.24;55.49;98413.44;5114884;28;20259;-57
2023/07/24 05:48:56;;;;;;;15.68;9.63;;;;;;;26.22;54.77;98399.53;5114902;28;20180;-57
2023/07/24 05:51:22;;;;;;;17.00;10.45;;;;;;;26.46;55.20;98418.34;5114445;28;20180;-57
2023/07/24 05:53:48;;;;;;;13.77;9.13;;;;;;;26.60;55.97;98412.00;5114677;28;20179;-57
2023/07/24 05:56:13;;;;;;;23.88;10.60;;;;;;;26.67;57.37;98415.50;5114603;28;20629;-57
2023/07/24 05:58:39;;;;;;;18.50;11.75;;;;;;;26.53;57.76;98384.63;5114429;28;20179;-57
2023/07/24 06:01:04;;;;;;;17.17;11.32;;;;;;;26.73;58.40;98414.69;5114664;28;20167;-57
2023/07/24 06:03:30;;;;;;;20.10;10.80;;;;;;;26.62;58.49;98386.09;5114710;28;20178;-57
2023/07/24 06:05:56;;;;;;;17.55;10.63;;;;;;;26.66;57.57;98373.22;5114570;28;20203;-57
2023/07/24 06:08:22;;;;;;;32.90;10.88;;;;;;;26.81;58.13;98379.91;5114231;28;20171;-57
2023/07/24 06:10:48;;;;;;;17.05;11.27;;;;;;;26.99;57.49;98390.69;5114224;28;20610;-57
2023/07/24 06:13:15;;;;;;;20.67;12.07;;;;;;;27.22;57.54;98404.34;5114495;28;20228;-57
2023/07/24 06:15:40;;;;;;;21.77;11.70;;;;;;;27.17;57.65;98380.25;5114258;28;20645;-57
2023/07/24 06:18:06;;;;;;;17.27;11.68;;;;;;;27.00;57.79;98368.41;5114448;27;20178;-57
2023/07/24 06:20:31;;;;;;;19.65;11.90;;;;;;;27.17;58.67;98392.72;5114565;28;20629;-57
2023/07/24 06:22:57;;;;;;;26.00;14.13;;;;;;;27.05;61.17;98349.22;5114337;27;20214;-57
2023/07/24 06:25:22;;;;;;;25.60;14.82;;;;;;;27.02;64.98;98377.00;5114277;28;20252;-57
2023/07/24 06:27:47;;;;;;;25.95;14.75;;;;;;;26.92;64.88;98355.38;5114170;28;20179;-57
2023/07/24 06:30:13;;;;;;;24.92;15.25;;;;;;;26.56;66.38;98362.19;5114247;28;20171;-57
2023/07/24 06:32:38;;;;;;;26.98;15.60;;;;;;;26.49;67.97;98348.94;5114392;28;20627;-57
2023/07/24 06:35:04;;;;;;;23.40;13.07;;;;;;;26.16;67.10;98361.41;5114128;28;20240;-57
2023/07/24 06:37:29;;;;;;;21.58;13.00;;;;;;;26.22;65.61;98347.31;5113980;28;20172;-57
2023/07/24 06:39:55;;;;;;;22.90;13.38;;;;;;;26.42;66.50;98371.97;5113873;28;20545;-57
2023/07/24 06:42:20;;;;;;;26.73;18.10;;;;;;;26.34;65.83;98350.97;5113843;28;20168;-57
2023/07/24 06:44:46;;;;;;;22.17;14.27;;;;;;;26.17;68.84;98344.47;5112820;28;20293;-57
2023/07/24 06:47:11;;;;;;;20.45;13.60;;;;;;;26.20;68.56;98373.25;5113846;28;20637;-57
2023/07/24 06:49:36;;;;;;;23.15;12.98;;;;;;;26.35;67.88;98373.84;5113819;28;20266;-57
2023/07/24 06:52:02;;;;;;;23.50;14.65;;;;;;;26.51;67.66;98359.31;5113675;28;20325;-57
2023/07/24 06:54:27;;;;;;;23.38;14.93;;;;;;;26.60;68.54;98344.84;5113899;28;20251;-57
2023/07/24 06:56:53;;;;;;;21.50;14.13;;;;;;;26.87;67.98;98376.44;5113684;28;20254;-57
2023/07/24 06:59:18;;;;;;;23.15;15.27;;;;;;;26.62;68.70;98354.25;5113427;28;20194;-56
2023/07/24 07:01:44;;;;;;;21.48;13.82;;;;;;;26.81;68.45;98368.47;5113341;28;20262;-57
2023/07/24 07:04:09;;;;;;;23.42;15.30;;;;;;;26.85;67.96;98364.38;5113409;28;20175;-55
2023/07/24 07:06:34;;;;;;;23.15;14.80;;;;;;;27.14;67.00;98369.19;5113335;27;20194;-57
2023/07/24 07:09:00;;;;;;;22.92;14.73;;;;;;;27.24;64.65;98366.94;5113447;28;20235;-55
2023/07/24 07:11:25;;;;;;;23.92;14.10;;;;;;;27.33;64.03;98361.16;5113382;28;20171;-56
2023/07/24 07:13:50;;;;;;;21.40;14.50;;;;;;;27.52;63.20;98349.63;5113567;28;20340;-57
2023/07/24 07:16:18;;;;;;;21.02;14.32;;;;;;;27.54;61.85;98347.56;5113149;28;20198;-56
2023/07/24 07:18:44;;;;;;;22.60;13.52;;;;;;;27.67;62.67;98362.63;5113070;28;20179;-57
2023/07/24 07:21:09;;;;;;;21.45;13.95;;;;;;;27.41;63.08;98328.22;5113155;28;20560;-57
2023/07/24 07:23:35;;;;;;;22.48;13.95;;;;;;;27.49;63.43;98339.41;5113324;28;20484;-57
2023/07/24 07:26:00;;;;;;;19.67;13.20;;;;;;;27.65;63.19;98359.38;5112858;28;20206;-57
2023/07/24 07:28:26;;;;;;;23.88;13.57;;;;;;;27.44;62.84;98325.94;5113019;28;20170;-57
2023/07/24 07:30:51;;;;;;;19.52;13.20;;;;;;;27.78;61.34;98354.00;5112558;27;20261;-57
2023/07/24 07:33:16;;;;;;;20.73;13.85;;;;;;;27.84;60.77;98355.78;5113091;27;20299;-57
2023/07/24 07:35:42;;;;;;;23.00;12.07;;;;;;;27.90;59.38;98338.97;5112779;28;20633;-57
2023/07/24 07:38:08;;;;;;;18.33;12.63;;;;;;;28.13;58.59;98342.69;5112668;28;20178;-55
2023/07/24 07:40:33;;;;;;;19.63;12.05;;;;;;;28.29;57.77;98328.78;5112662;28;20179;-55
2023/07/24 07:42:58;;;;;;;21.50;14.05;;;;;;;28.45;56.63;98338.94;5112575;28;20174;-55
2023/07/24 07:45:24;;;;;;;20.33;11.82;;;;;;;28.50;56.54;98323.09;5112513;28;20765;-55
2023/07/24 07:47:50;;;;;;;21.98;12.65;;;;;;;28.56;56.20;98316.91;5112372;28;20173;-55
2023/07/24 07:50:15;;;;;;;19.88;13.10;;;;;;;28.75;56.11;98339.03;5112343;27;20179;-56
2023/07/24 07:52:41;;;;;;;29.30;12.88;;;;;;;28.88;56.05;98345.03;5112254;28;20564;-56
2023/07/24 07:55:06;;;;;;;17.35;12.88;;;;;;;28.73;55.46;98309.13;5112160;28;20182;-56
2023/07/24 07:57:38;;;;;;;19.83;12.57;;;;;;;28.97;55.64;98338.41;5112073;28;20668;-56
2023/07/24 08:00:05;;;;;;;19.75;14.00;;;;;;;28.98;54.91;98324.03;5112500;28;20174;-56
2023/07/24 08:02:31;;;;;;;22.83;13.27;;;;;;;28.99;54.77;98307.03;5112212;28;20548;-56
2023/07/24 08:04:57;;;;;;;22.52;13.02;;;;;;;29.00;54.67;98327.31;5112102;28;20222;-56
2023/07/24 08:07:22;;;;;;;21.50;13.38;;;;;;;29.06;55.01;98347.72;5112393;28;20180;-56
2023/07/24 08:09:48;;;;;;;23.52;13.10;;;;;;;28.95;54.88;98308.50;5112242;28;20687;-56
2023/07/24 08:12:13;;;;;;;23.27;12.57;;;;;;;29.05;53.99;98329.28;5112275;28;20205;-55
2023/07/24 08:14:39;;;;;;;27.88;13.52;;;;;;;28.86;54.03;98304.47;5112109;28;20512;-56
2023/07/24 08:17:04;;;;;;;23.90;13.35;;;;;;;28.96;54.22;98323.44;5111871;28;20258;-55
2023/07/24 08:19:30;;;;;;;25.02;12.70;;;;;;;28.98;53.81;98318.69;5112247;28;20249;-55
2023/07/24 08:21:55;;;;;;;17.60;11.75;;;;;;;29.22;53.99;98340.97;5111877;28;20308;-55
2023/07/24 08:24:21;;;;;;;24.25;12.60;;;;;;;29.16;54.07;98300.03;5111785;28;20242;-55
2023/07/24 08:26:46;;;;;;;19.65;12.45;;;;;;;29.27;53.76;98333.91;5112059;28;20186;-55
2023/07/24 08:29:15;;;;;;;22.27;11.93;;;;;;;29.15;53.37;98292.28;5111996;28;20673;-56
2023/07/24 08:31:40;;;;;;;17.33;12.30;;;;;;;29.41;53.14;98297.22;5111948;28;20266;-55
2023/07/24 08:34:05;;;;;;;21.70;12.30;;;;;;;29.55;52.48;98304.03;5111821;28;20537;-55
2023/07/24 08:36:31;;;;;;;26.73;12.75;;;;;;;29.70;51.63;98307.09;5111893;28;20174;-56
2023/07/24 08:38:56;;;;;;;19.77;12.27;;;;;;;29.77;51.67;98297.94;5112173;28;20583;-56
2023/07/24 08:41:22;;;;;;;20.52;12.25;;;;;;;30.06;51.44;98329.09;5111442;28;20167;-56
2023/07/24 08:43:49;;;;;;;17.33;12.15;;;;;;;30.12;51.55;98317.53;5112081;28;20171;-56
2023/07/24 08:46:16;;;;;;;18.73;12.88;;;;;;;30.18;51.40;98319.25;5111687;28;20238;-56
2023/07/24 08:48:42;;;;;;;47.30;16.95;;;;;;;30.30;51.46;98332.59;5111730;28;20172;-56
2023/07/24 08:51:10;;;;;;;22.88;15.00;;;;;;;30.31;50.83;98316.34;5111731;28;20510;-56
2023/07/24 08:53:38;;;;;;;16.02;12.15;;;;;;;30.23;50.59;98314.03;5111699;28;20189;-56
2023/07/24 08:56:04;;;;;;;17.52;12.15;;;;;;;29.99;51.34;98311.53;5111403;28;20218;-56
2023/07/24 08:58:30;;;;;;;15.52;12.23;;;;;;;30.00;50.70;98281.97;5111609;28;20177;-56
2023/07/24 09:01:00;;;;;;;15.82;10.82;;;;;;;29.96;51.40;98280.00;5111670;28;20163;-56
2023/07/24 09:03:26;;;;;;;17.40;11.57;;;;;;;30.13;52.10;98310.34;5111309;28;20595;-56
2023/07/24 09:05:52;;;;;;;20.63;12.18;;;;;;;30.28;50.79;98311.50;5111331;28;20205;-57
2023/07/24 09:08:28;;;;;;;18.92;15.07;;;;;;;30.20;50.46;98282.47;5114846;28;20181;-56
2023/07/24 09:10:53;;;;;;;17.67;12.65;;;;;;;30.26;50.68;98278.84;5115808;28;20175;-56
2023/07/24 09:13:19;;;;;;;18.80;12.73;;;;;;;30.39;50.16;98285.81;5115668;28;20178;-56
2023/07/24 09:15:45;;;;;;;21.40;11.98;;;;;;;30.30;50.69;98277.34;5115697;28;20177;-56
2023/07/24 09:18:10;;;;;;;22.05;12.20;;;;;;;30.47;50.64;98299.63;5115648;28;20179;-57
2023/07/24 09:20:41;;;;;;;17.48;12.45;;;;;;;30.41;50.32;98265.84;5115571;28;20671;-57
2023/07/24 09:23:08;;;;;;;16.98;11.88;;;;;;;30.58;50.47;98280.13;5115606;27;20250;-57
2023/07/24 09:25:35;;;;;;;15.45;12.05;;;;;;;30.81;50.46;98296.13;5115259;28;20198;-56
2023/07/24 09:28:08;;;;;;;15.13;12.38;;;;;;;30.73;49.54;98269.75;5115432;27;20171;-56
2023/07/24 09:30:33;;;;;;;16.25;11.45;;;;;;;31.07;48.48;98294.78;5115243;28;20195;-56
2023/07/24 09:32:59;;;;;;;21.15;12.80;;;;;;;31.00;48.42;98265.50;5115137;28;20203;-56
2023/07/24 09:35:28;;;;;;;19.90;11.55;;;;;;;31.11;48.42;98269.19;5115487;28;20179;-56
2023/07/24 09:38:22;;;;;;;16.25;12.45;;;;;;;31.28;48.54;98292.28;5114859;28;20179;-56
2023/07/24 09:40:50;;;;;;;17.88;12.90;;;;;;;31.23;48.86;98272.66;5071858;28;20649;-56
2023/07/24 09:43:22;;;;;;;16.48;13.07;;;;;;;31.40;48.82;98278.84;5072069;28;20187;-56
2023/07/24 09:45:49;;;;;;;18.13;11.75;;;;;;;31.37;48.12;98255.28;5071796;28;20637;-56
2023/07/24 09:48:16;;;;;;;16.00;12.95;;;;;;;31.63;47.04;98279.56;5071709;28;20191;-56
2023/07/24 09:50:45;;;;;;;15.43;11.85;;;;;;;31.40;47.73;98231.53;5071817;28;20714;-56
2023/07/24 09:53:18;;;;;;;14.93;12.18;;;;;;;31.72;47.80;98254.03;5071898;28;20176;-56
2023/07/24 09:56:09;;;;;;;18.73;12.48;;;;;;;31.49;47.46;98230.06;5071751;28;20189;-56
2023/07/24 09:58:39;;;;;;;18.38;13.73;;;;;;;31.73;48.35;98215.53;5071329;28;20228;-56
2023/07/24 10:01:07;;;;;;;15.77;13.32;;;;;;;31.76;48.15;98232.97;5071724;28;20173;-56
2023/07/24 10:03:38;;;;;;;21.15;13.45;;;;;;;31.69;48.57;98246.47;5071449;28;20193;-56
2023/07/24 10:06:04;;;;;;;18.45;14.10;;;;;;;31.71;48.65;98214.91;5071562;28;20215;-56
2023/07/24 10:08:30;;;;;;;16.90;14.40;;;;;;;31.88;47.85;98239.84;5071572;28;20699;-56
2023/07/24 10:10:58;;;;;;;19.65;14.85;;;;;;;31.96;47.73;98228.75;5071395;28;20674;-56
2023/07/24 10:13:26;;;;;;;27.33;13.85;;;;;;;32.14;46.59;98228.47;5071561;28;20183;-56
2023/07/24 10:15:52;;;;;;;17.45;12.48;;;;;;;32.06;44.70;98234.22;5071547;28;20180;-56
2023/07/24 10:18:27;;;;;;;17.05;13.20;;;;;;;32.00;45.43;98215.66;5111783;28;20203;-56
2023/07/24 10:21:04;;;;;;;14.48;11.57;;;;;;;32.13;44.87;98205.41;5114487;28;20195;-56
2023/07/24 10:23:30;;;;;;;17.52;12.30;;;;;;;32.13;43.07;98192.00;5114414;28;20171;-56
2023/07/24 10:25:55;;;;;;;17.00;12.57;;;;;;;32.43;43.13;98205.03;5114231;28;20243;-56
2023/07/24 10:28:32;;;;;;;14.93;12.20;;;;;;;32.48;42.03;98197.06;5114447;28;20648;-56
2023/07/24 10:30:57;;;;;;;13.85;12.13;;;;;;;32.82;43.29;98204.72;5114077;28;20175;-56
2023/07/24 10:33:22;;;;;;;16.00;12.00;;;;;;;32.94;42.79;98189.31;5113907;28;20240;-56
2023/07/24 10:35:52;;;;;;;15.55;12.68;;;;;;;33.20;41.87;98201.94;5114318;28;20183;-56
2023/07/24 10:38:18;;;;;;;14.70;12.57;;;;;;;33.26;42.14;98192.03;5114081;28;20179;-56
2023/07/24 10:40:46;;;;;;;13.68;10.95;;;;;;;33.50;41.26;98201.41;5114057;28;20178;-56
2023/07/24 10:43:14;;;;;;;15.18;11.93;;;;;;;33.60;40.39;98202.31;5114104;28;20187;-56
2023/07/24 10:45:42;;;;;;;13.07;11.25;;;;;;;33.58;40.53;98182.16;5113863;28;20256;-56
2023/07/24 10:48:11;;;;;;;18.80;12.60;;;;;;;33.71;40.97;98187.91;5113912;27;20263;-57
2023/07/24 10:50:41;;;;;;;16.30;12.35;;;;;;;33.85;40.37;98166.78;5113825;28;20175;-56
2023/07/24 10:53:06;;;;;;;13.27;11.77;;;;;;;34.21;39.28;98176.69;5111281;28;20582;-56
2023/07/24 10:55:32;;;;;;;14.70;10.82;;;;;;;34.54;37.44;98182.53;5111187;28;20194;-58
2023/07/24 10:57:57;;;;;;;14.45;11.70;;;;;;;34.55;37.52;98154.56;5111329;28;20708;-57
2023/07/24 11:00:23;;;;;;;13.85;11.52;;;;;;;34.85;37.25;98168.13;5111149;28;20215;-57
2023/07/24 11:02:49;;;;;;;13.45;12.05;;;;;;;35.04;37.38;98171.94;5090669;28;20191;-57
2023/07/24 11:05:16;;;;;;;17.38;12.05;;;;;;;35.10;36.26;98157.41;5090486;28;20223;-58
2023/07/24 11:07:41;;;;;;;11.75;10.25;;;;;;;35.21;35.52;98163.59;5090633;28;20574;-57
2023/07/24 11:10:21;;;;;;;18.77;11.30;;;;;;;35.46;36.18;98158.25;5090647;28;20171;-57
2023/07/24 11:12:47;;;;;;;14.32;11.57;;;;;;;35.34;34.83;98139.69;5090564;28;20198;-57
2023/07/24 11:15:14;;;;;;;16.95;11.48;;;;;;;35.64;33.07;98150.44;5090525;28;20191;-58